Moore, South Carolina
Current Conditions -  °F | °C
As of 10:35 PM on Monday 26 Jan 2015 (Local Time) from KSPA Reporting Station
Clear Clear  
Wind Chill: 34°   Ceiling: Unl
Heat Index: 39°   Visibility: 10mi
Dew Point: 23°   Wind: 7mph
Humidity: 52%   Direction: 320°NW
Pressure: 29.8"   Gusts: 17mph
Location:  34.83°N, 81.99°W
Report Text: KSPA 270335Z AUTO 32006G15KT 10SM CLR 04/M05 A2980 RMK AO2
Loading
Personal Weather Stations






























Interactive Weather Map New forecast layout! Learn more

10-Day Weather Forecast

Advertisements
Track Severe Weather on mobile